Time;durP1;ratioP1;P1;durP2;ratioP2;P2;SDS_P1;SDS_P2;PMS_P1;PMS_P2;Temp;Humidity;BMP_temperature;BMP_pressure;BME280_temperature;BME280_humidity;BME280_pressure;Samples;Min_cycle;Max_cycle;Signal;HPM_P1;HPM_P2
2023/10/26 00:02:01;;;;;;;28.27;15.32;;;9.70;99.90;;;;;;6278606;22;20015;-88
2023/10/26 00:04:27;;;;;;;30.02;15.30;;;10.70;99.90;;;;;;6279467;22;20079;-88
2023/10/26 00:07:19;;;;;;;30.48;15.60;;;10.40;99.90;;;;;;6279595;22;20042;-88
2023/10/26 00:09:45;;;;;;;29.27;15.60;;;10.50;99.90;;;;;;6278206;22;20342;-88
2023/10/26 00:12:11;;;;;;;27.90;14.98;;;9.90;99.90;;;;;;6279069;22;20011;-89
2023/10/26 00:14:37;;;;;;;28.60;15.35;;;9.90;99.90;;;;;;6279163;22;20019;-88
2023/10/26 00:17:09;;;;;;;27.27;14.45;;;9.80;99.90;;;;;;6278994;22;20332;-89
2023/10/26 00:19:35;;;;;;;27.80;14.95;;;10.40;99.90;;;;;;6279255;22;20443;-88
2023/10/26 00:22:01;;;;;;;27.00;14.82;;;11.10;99.90;;;;;;6279134;22;20179;-88
2023/10/26 00:24:26;;;;;;;28.08;16.33;;;9.90;99.90;;;;;;6278997;22;20019;-87
2023/10/26 00:27:10;;;;;;;30.25;15.85;;;9.50;99.90;;;;;;6306969;22;20015;-88
2023/10/26 00:29:36;;;;;;;30.25;16.60;;;9.00;99.90;;;;;;6279491;22;20019;-89
2023/10/26 00:32:03;;;;;;;29.27;16.55;;;10.90;99.90;;;;;;6281261;22;20023;-88
2023/10/26 00:34:29;;;;;;;29.75;14.73;;;9.70;99.90;;;;;;6278535;22;20015;-88
2023/10/26 00:36:54;;;;;;;32.30;16.00;;;11.10;99.90;;;;;;6279414;22;20408;-89
2023/10/26 00:39:20;;;;;;;32.35;16.20;;;10.70;99.90;;;;;;6281004;22;20435;-88
2023/10/26 00:41:49;;;;;;;29.83;16.70;;;9.70;99.90;;;;;;6281397;22;20093;-88
2023/10/26 00:44:15;;;;;;;34.73;17.27;;;11.00;99.90;;;;;;6280345;22;20015;-88
2023/10/26 00:46:41;;;;;;;31.00;16.60;;;9.50;99.90;;;;;;6281354;22;20018;-88
2023/10/26 00:49:07;;;;;;;32.57;18.17;;;11.00;99.90;;;;;;6286137;22;20145;-87
2023/10/26 00:51:34;;;;;;;32.93;17.80;;;10.70;99.90;;;;;;6280520;22;20451;-88
2023/10/26 00:54:07;;;;;;;33.22;16.65;;;11.10;99.90;;;;;;6281451;22;20427;-88
2023/10/26 00:56:35;;;;;;;39.83;19.25;;;9.60;99.90;;;;;;6286258;22;20100;-88
2023/10/26 01:01:34;;;;;;;37.08;19.50;;;9.70;99.90;;;;;;6277252;22;20448;-85
2023/10/26 01:04:04;;;;;;;39.13;20.20;;;11.10;99.90;;;;;;6275776;22;20557;-86
2023/10/26 01:06:30;;;;;;;39.10;20.02;;;9.70;99.90;;;;;;6275274;22;20061;-86
2023/10/26 01:09:05;;;;;;;41.35;20.75;;;11.10;99.90;;;;;;6276317;22;20093;-86
2023/10/26 01:11:31;;;;;;;41.90;21.60;;;11.00;99.90;;;;;;6274472;22;20094;-88
2023/10/26 01:14:27;;;;;;;41.28;21.02;;;11.00;99.90;;;;;;6275739;22;20043;-88
2023/10/26 01:16:56;;;;;;;41.67;21.30;;;10.60;99.90;;;;;;6263522;22;20027;-88
2023/10/26 01:19:35;;;;;;;39.67;21.02;;;9.80;99.90;;;;;;6274489;22;20008;-88
2023/10/26 01:22:03;;;;;;;41.00;21.55;;;10.80;99.90;;;;;;6276003;22;20022;-88
2023/10/26 01:24:29;;;;;;;41.85;22.92;;;11.10;99.90;;;;;;6276944;22;20069;-89
2023/10/26 01:27:01;;;;;;;46.22;23.40;;;10.80;99.90;;;;;;6295910;22;20008;-88
2023/10/26 01:29:27;;;;;;;44.97;23.10;;;10.70;99.90;;;;;;6297132;22;20101;-88
2023/10/26 01:32:05;;;;;;;47.15;22.63;;;10.60;99.90;;;;;;6278095;22;20015;-88
2023/10/26 01:34:32;;;;;;;42.58;21.25;;;9.70;99.90;;;;;;6276778;22;20016;-88
2023/10/26 01:36:58;;;;;;;42.33;23.35;;;10.70;99.90;;;;;;6275538;22;20024;-88
2023/10/26 01:39:24;;;;;;;45.03;23.38;;;10.70;99.90;;;;;;6275090;22;20015;-87
2023/10/26 01:41:50;;;;;;;43.15;23.05;;;9.80;99.90;;;;;;6275606;22;20051;-89
2023/10/26 01:44:22;;;;;;;41.45;23.10;;;10.90;99.90;;;;;;6275542;22;20139;-88
2023/10/26 01:46:47;;;;;;;48.72;23.77;;;10.10;99.90;;;;;;6274887;22;20023;-88
2023/10/26 01:49:13;;;;;;;42.05;23.50;;;9.70;99.90;;;;;;6274557;22;20071;-88
2023/10/26 01:51:39;;;;;;;39.25;23.17;;;11.10;99.90;;;;;;6275892;22;20020;-88
2023/10/26 01:54:05;;;;;;;45.95;22.80;;;11.20;99.90;;;;;;6274082;22;20397;-88
2023/10/26 01:56:31;;;;;;;46.75;23.33;;;9.60;99.90;;;;;;6275342;22;20073;-88
2023/10/26 01:59:09;;;;;;;44.15;23.52;;;10.90;99.90;;;;;;6276006;22;20045;-88
2023/10/26 02:01:35;;;;;;;49.13;23.70;;;10.90;99.90;;;;;;6274251;22;20027;-88
2023/10/26 02:04:00;;;;;;;48.30;24.17;;;9.90;99.90;;;;;;6276204;22;20012;-88
2023/10/26 02:06:26;;;;;;;47.45;24.92;;;11.00;99.90;;;;;;6274677;22;20012;-87
2023/10/26 02:09:02;;;;;;;49.50;24.23;;;9.60;99.90;;;;;;6274323;22;20024;-88
2023/10/26 02:11:28;;;;;;;51.15;26.13;;;9.00;99.90;;;;;;6275034;22;20023;-88
2023/10/26 02:14:13;;;;;;;51.28;24.05;;;10.90;99.90;;;;;;6275446;22;20016;-88
2023/10/26 02:17:03;;;;;;;52.92;25.85;;;10.60;99.90;;;;;;6274197;22;20020;-88
2023/10/26 02:19:29;;;;;;;57.42;27.30;;;9.70;99.90;;;;;;6278204;22;20097;-88
2023/10/26 02:22:07;;;;;;;57.42;26.02;;;10.50;99.90;;;;;;6274134;22;20721;-88
2023/10/26 02:24:32;;;;;;;59.15;26.85;;;11.10;99.90;;;;;;6275191;22;20023;-88
2023/10/26 02:27:01;;;;;;;56.70;26.95;;;10.80;99.90;;;;;;6278520;22;20542;-88
2023/10/26 02:29:33;;;;;;;59.50;28.50;;;10.80;99.90;;;;;;6273989;22;20023;-88
2023/10/26 02:32:06;;;;;;;58.08;27.45;;;10.30;99.90;;;;;;6275102;22;20333;-88
2023/10/26 02:34:31;;;;;;;62.30;27.60;;;9.60;99.90;;;;;;6276300;22;20351;-88
2023/10/26 02:36:59;;;;;;;65.50;28.50;;;10.90;99.90;;;;;;6274239;22;20266;-88
2023/10/26 02:39:26;;;;;;;64.20;28.08;;;10.40;99.90;;;;;;6275092;22;20091;-87
2023/10/26 02:41:52;;;;;;;64.75;28.20;;;11.00;99.90;;;;;;6277267;22;20016;-88
2023/10/26 02:44:17;;;;;;;58.90;27.27;;;10.80;99.90;;;;;;6273877;22;20027;-88
2023/10/26 02:46:43;;;;;;;66.10;27.70;;;10.60;99.90;;;;;;6275044;22;20016;-88
2023/10/26 02:49:09;;;;;;;59.50;28.85;;;10.40;99.90;;;;;;6274743;22;20012;-88
2023/10/26 02:58:47;;;;;;;59.00;27.58;;;9.10;99.90;;;;;;6280095;22;20080;-86
2023/10/26 03:01:13;;;;;;;65.63;29.65;;;9.70;99.90;;;;;;6248665;22;20086;-88
2023/10/26 03:03:39;;;;;;;65.10;27.30;;;11.00;99.90;;;;;;6249159;22;20023;-88
2023/10/26 03:06:05;;;;;;;63.03;28.17;;;10.60;99.90;;;;;;6248057;22;20015;-89
2023/10/26 03:08:30;;;;;;;67.72;28.80;;;10.70;99.90;;;;;;6248688;22;20024;-88
2023/10/26 03:11:05;;;;;;;64.55;28.98;;;9.50;99.90;;;;;;6247988;22;20035;-88
2023/10/26 03:13:31;;;;;;;66.18;28.88;;;9.90;99.90;;;;;;6248606;22;20526;-88
2023/10/26 03:15:59;;;;;;;62.80;27.80;;;10.50;99.90;;;;;;6249678;22;20050;-88
2023/10/26 03:18:25;;;;;;;66.30;28.95;;;9.50;99.90;;;;;;6248035;22;20391;-88
2023/10/26 03:20:51;;;;;;;63.42;27.63;;;10.80;99.90;;;;;;6249080;22;20023;-88
2023/10/26 03:23:16;;;;;;;61.35;28.25;;;9.50;99.90;;;;;;6249164;22;20134;-88
2023/10/26 03:25:42;;;;;;;70.63;28.00;;;10.50;99.90;;;;;;6248794;22;20031;-88
2023/10/26 03:28:07;;;;;;;65.35;27.90;;;9.80;99.90;;;;;;6249146;22;20023;-88
2023/10/26 03:30:33;;;;;;;66.65;28.52;;;9.60;99.90;;;;;;6248830;22;20026;-88
2023/10/26 03:33:05;;;;;;;71.32;29.23;;;10.50;99.90;;;;;;6248720;22;20335;-88
2023/10/26 03:35:35;;;;;;;69.75;29.50;;;10.80;99.90;;;;;;6252503;22;20362;-89
2023/10/26 03:38:10;;;;;;;67.93;28.90;;;10.60;99.90;;;;;;6250308;22;20072;-88
2023/10/26 03:40:35;;;;;;;64.80;27.75;;;9.30;99.90;;;;;;6248532;22;20027;-88
2023/10/26 03:43:07;;;;;;;72.65;29.38;;;11.10;99.90;;;;;;6248617;22;20019;-88
2023/10/26 03:45:33;;;;;;;62.22;28.58;;;10.80;99.90;;;;;;6248851;22;20028;-89
2023/10/26 03:47:59;;;;;;;71.22;27.05;;;9.10;99.90;;;;;;6248108;22;20024;-88
2023/10/26 03:50:25;;;;;;;65.50;28.38;;;10.60;99.90;;;;;;6251781;22;20051;-88
2023/10/26 03:52:51;;;;;;;65.60;28.35;;;10.20;99.90;;;;;;6248776;22;20018;-88
2023/10/26 03:55:17;;;;;;;71.18;29.85;;;10.20;99.90;;;;;;6247718;22;20019;-88
2023/10/26 03:57:44;;;;;;;68.35;29.55;;;9.50;99.90;;;;;;6252580;22;20020;-88
2023/10/26 04:00:11;;;;;;;65.13;28.70;;;10.70;99.90;;;;;;6247833;22;20161;-87
2023/10/26 04:02:43;;;;;;;62.72;28.52;;;9.40;99.90;;;;;;6249122;22;20073;-88
2023/10/26 04:05:10;;;;;;;64.13;29.38;;;10.40;99.90;;;;;;6248429;22;20058;-87
2023/10/26 04:07:38;;;;;;;64.10;28.38;;;10.30;99.90;;;;;;6247470;22;20026;-88
2023/10/26 04:10:07;;;;;;;62.63;28.03;;;10.70;99.90;;;;;;6248855;22;20074;-88
2023/10/26 04:12:32;;;;;;;69.37;29.33;;;9.40;99.90;;;;;;6250346;22;20379;-88
2023/10/26 04:14:58;;;;;;;66.95;29.00;;;10.90;99.90;;;;;;6249679;22;20099;-88
2023/10/26 04:17:24;;;;;;;62.97;28.77;;;9.10;99.90;;;;;;6251662;22;20020;-88
2023/10/26 04:19:50;;;;;;;67.73;28.23;;;10.40;99.90;;;;;;6252582;22;20018;-88
2023/10/26 04:22:15;;;;;;;69.20;29.10;;;10.30;99.90;;;;;;6250461;22;20020;-88
2023/10/26 04:24:41;;;;;;;66.82;28.85;;;10.30;99.90;;;;;;6251223;22;20043;-89
2023/10/26 04:27:07;;;;;;;67.15;28.38;;;10.10;99.90;;;;;;6253209;22;20022;-88
2023/10/26 04:29:33;;;;;;;67.97;29.33;;;10.70;99.90;;;;;;6260276;22;20015;-88
2023/10/26 04:32:05;;;;;;;76.97;28.98;;;10.40;99.90;;;;;;6274628;22;20050;-88
2023/10/26 04:34:30;;;;;;;71.05;29.95;;;9.50;99.90;;;;;;6251070;22;20099;-88
2023/10/26 04:36:56;;;;;;;86.05;30.63;;;10.10;99.90;;;;;;6250566;22;20050;-88
2023/10/26 04:39:22;;;;;;;67.85;29.52;;;10.20;99.90;;;;;;6250266;22;20382;-88
2023/10/26 04:41:48;;;;;;;70.43;30.58;;;9.80;99.90;;;;;;6250555;22;20114;-88
2023/10/26 04:44:19;;;;;;;70.70;29.57;;;10.80;99.90;;;;;;6249096;22;20409;-88
2023/10/26 04:46:53;;;;;;;76.77;30.43;;;10.80;99.90;;;;;;6250642;22;20019;-88
2023/10/26 04:49:19;;;;;;;77.43;30.33;;;9.80;99.90;;;;;;6249133;22;20020;-88
2023/10/26 04:51:47;;;;;;;71.90;29.87;;;8.90;99.90;;;;;;6251062;22;20102;-89
2023/10/26 04:54:13;;;;;;;70.18;28.83;;;10.80;99.90;;;;;;6252190;22;20012;-88
2023/10/26 04:56:39;;;;;;;71.05;29.33;;;10.90;99.90;;;;;;6250843;22;20082;-88
2023/10/26 04:59:04;;;;;;;79.93;30.00;;;10.90;99.90;;;;;;6250011;22;20022;-88
2023/10/26 05:01:30;;;;;;;71.85;28.08;;;9.40;99.90;;;;;;6277465;22;20035;-88
2023/10/26 05:03:56;;;;;;;66.80;28.83;;;10.40;99.90;;;;;;6249988;22;20019;-88
2023/10/26 05:06:22;;;;;;;68.60;29.73;;;10.10;99.90;;;;;;6250110;22;20031;-89
2023/10/26 05:08:47;;;;;;;73.97;29.58;;;10.00;99.90;;;;;;6253231;22;20391;-88
2023/10/26 05:11:14;;;;;;;73.85;29.05;;;10.80;99.90;;;;;;6249603;22;20019;-88
2023/10/26 05:13:40;;;;;;;70.97;29.67;;;10.90;99.90;;;;;;6250150;22;20019;-88
2023/10/26 05:16:05;;;;;;;72.68;29.98;;;10.70;99.90;;;;;;6249842;22;20020;-88
2023/10/26 05:18:32;;;;;;;72.15;29.70;;;10.40;99.90;;;;;;6248971;22;20024;-87
2023/10/26 05:20:59;;;;;;;68.93;28.60;;;10.40;99.90;;;;;;6253262;22;20020;-88
2023/10/26 05:23:25;;;;;;;73.18;30.55;;;10.40;99.90;;;;;;6249250;22;20019;-88
2023/10/26 05:26:02;;;;;;;72.20;29.52;;;10.60;99.90;;;;;;6249773;22;20023;-89
2023/10/26 05:28:28;;;;;;;69.22;28.08;;;9.20;99.90;;;;;;6252602;22;20011;-88
2023/10/26 05:30:53;;;;;;;71.80;28.65;;;10.30;99.90;;;;;;6249887;22;20022;-89
2023/10/26 05:33:37;;;;;;;64.68;27.52;;;10.20;99.90;;;;;;6248737;22;20007;-89
2023/10/26 05:36:03;;;;;;;78.90;29.05;;;10.80;99.90;;;;;;6250422;22;20015;-87
2023/10/26 05:38:29;;;;;;;69.57;27.70;;;9.40;99.90;;;;;;6249512;22;20090;-88
2023/10/26 05:40:55;;;;;;;66.80;26.20;;;9.40;99.90;;;;;;6249259;22;20104;-87
2023/10/26 05:43:22;;;;;;;68.72;27.45;;;10.40;99.90;;;;;;6249606;22;20022;-88
2023/10/26 05:45:47;;;;;;;76.82;28.02;;;9.40;99.90;;;;;;6248861;22;20023;-86
2023/10/26 05:48:13;;;;;;;68.47;26.90;;;10.40;99.90;;;;;;6249770;22;20321;-86
2023/10/26 05:50:41;;;;;;;73.25;26.35;;;10.00;99.90;;;;;;6250288;22;20029;-86
2023/10/26 05:53:08;;;;;;;72.22;29.05;;;10.80;99.90;;;;;;6276631;22;20391;-86
2023/10/26 05:55:34;;;;;;;65.85;26.77;;;10.00;99.90;;;;;;6250114;22;20019;-86
2023/10/26 05:58:09;;;;;;;68.60;26.80;;;10.60;99.90;;;;;;6249488;22;20015;-86
2023/10/26 06:00:41;;;;;;;64.90;26.17;;;10.10;99.90;;;;;;6248922;22;20050;-86
2023/10/26 06:03:07;;;;;;;68.18;27.25;;;9.80;99.90;;;;;;6277246;22;20466;-86
2023/10/26 06:05:32;;;;;;;71.35;28.95;;;10.40;99.90;;;;;;6249420;22;20039;-85
2023/10/26 06:07:58;;;;;;;67.22;27.88;;;10.60;99.90;;;;;;6276262;22;20027;-90
2023/10/26 06:10:24;;;;;;;71.15;27.98;;;10.50;99.90;;;;;;6250478;22;20078;-91
2023/10/26 06:12:49;;;;;;;72.45;27.58;;;10.40;99.90;;;;;;6250379;22;20031;-91
2023/10/26 06:15:16;;;;;;;71.03;27.88;;;9.60;99.90;;;;;;6248354;22;20344;-90
2023/10/26 06:17:54;;;;;;;73.45;27.25;;;9.00;99.90;;;;;;6250415;22;20327;-91
2023/10/26 06:20:29;;;;;;;69.47;28.65;;;9.90;99.90;;;;;;6250221;22;20109;-90
2023/10/26 06:23:11;;;;;;;72.13;26.70;;;10.40;99.90;;;;;;6248931;22;20055;-90
2023/10/26 06:25:38;;;;;;;79.95;28.77;;;9.50;99.90;;;;;;6249568;22;20011;-89
2023/10/26 06:28:04;;;;;;;75.00;27.35;;;10.30;99.90;;;;;;6248892;22;20018;-90
2023/10/26 06:30:31;;;;;;;70.07;27.52;;;9.90;99.90;;;;;;6249151;22;20016;-90
2023/10/26 06:33:13;;;;;;;73.13;27.55;;;10.20;99.90;;;;;;6249538;22;20020;-87
2023/10/26 06:35:38;;;;;;;77.05;29.35;;;10.10;99.90;;;;;;6248096;22;20106;-88
2023/10/26 06:38:04;;;;;;;76.05;27.42;;;10.30;99.90;;;;;;6249606;22;20070;-89
2023/10/26 06:40:30;;;;;;;84.30;30.20;;;10.30;99.90;;;;;;6249679;22;20046;-88
2023/10/26 06:43:04;;;;;;;76.67;28.40;;;9.10;99.90;;;;;;6248646;22;20012;-88
2023/10/26 06:45:30;;;;;;;77.90;29.85;;;10.10;99.90;;;;;;6248891;22;20023;-88
2023/10/26 06:47:55;;;;;;;86.72;28.25;;;10.10;99.90;;;;;;6249463;22;20018;-88
2023/10/26 06:50:23;;;;;;;78.15;29.15;;;9.00;99.90;;;;;;6248005;22;20015;-89
2023/10/26 06:52:48;;;;;;;83.70;28.85;;;8.60;99.90;;;;;;6252196;22;20018;-88
2023/10/26 06:55:15;;;;;;;81.78;29.17;;;10.30;99.90;;;;;;6249090;22;20091;-89
2023/10/26 06:57:43;;;;;;;79.05;29.15;;;9.00;99.90;;;;;;6243537;22;20383;-90
2023/10/26 07:00:10;;;;;;;84.47;29.08;;;9.60;99.90;;;;;;6221556;23;20024;-89
2023/10/26 07:02:36;;;;;;;83.63;29.02;;;9.00;99.90;;;;;;6218838;23;20027;-89
2023/10/26 07:05:33;;;;;;;75.40;28.88;;;10.40;99.90;;;;;;6218026;23;20026;-89
2023/10/26 07:07:59;;;;;;;79.55;27.75;;;8.60;99.90;;;;;;6218719;23;20470;-90
2023/10/26 07:10:28;;;;;;;81.45;29.42;;;8.30;99.90;;;;;;6217254;23;20095;-89
2023/10/26 07:13:08;;;;;;;80.47;28.75;;;10.40;99.90;;;;;;6217157;23;20012;-89
2023/10/26 07:15:35;;;;;;;87.13;31.48;;;10.00;99.90;;;;;;6217946;23;20095;-90
2023/10/26 07:18:01;;;;;;;78.43;30.95;;;10.20;99.90;;;;;;6217673;23;20024;-90
2023/10/26 07:20:26;;;;;;;76.93;29.10;;;9.80;99.90;;;;;;6217943;23;20348;-89
2023/10/26 07:22:52;;;;;;;79.43;28.73;;;8.70;99.90;;;;;;6217642;23;20020;-89
2023/10/26 07:25:18;;;;;;;73.72;27.58;;;10.00;99.90;;;;;;6217131;23;20024;-89
2023/10/26 07:27:44;;;;;;;68.20;28.30;;;10.30;99.90;;;;;;6218876;23;20016;-89
2023/10/26 07:30:12;;;;;;;65.03;28.08;;;9.30;99.90;;;;;;6217825;23;20087;-91
2023/10/26 07:32:38;;;;;;;70.38;28.15;;;9.40;99.90;;;;;;6231896;22;20016;-94
2023/10/26 07:35:07;;;;;;;68.95;28.13;;;10.30;99.90;;;;;;6246603;22;20012;-91
2023/10/26 07:37:33;;;;;;;59.33;26.25;;;9.30;99.90;;;;;;6220958;23;20083;-90
2023/10/26 07:40:05;;;;;;;56.40;24.90;;;8.40;99.90;;;;;;6218129;23;20135;-90
2023/10/26 07:42:30;;;;;;;55.38;26.42;;;9.30;99.90;;;;;;6217653;23;20031;-90
2023/10/26 07:44:59;;;;;;;56.03;27.05;;;10.70;99.90;;;;;;6217187;23;20348;-90
2023/10/26 07:47:28;;;;;;;51.53;23.90;;;9.40;99.90;;;;;;6216481;23;20031;-89
2023/10/26 07:50:06;;;;;;;52.22;24.67;;;10.30;99.90;;;;;;6222361;23;20012;-90
2023/10/26 07:52:32;;;;;;;50.90;23.58;;;9.50;99.90;;;;;;6218445;23;20048;-90
2023/10/26 07:54:58;;;;;;;48.45;23.70;;;10.80;99.90;;;;;;6218784;23;20016;-89
2023/10/26 07:57:25;;;;;;;57.08;25.73;;;10.50;99.90;;;;;;6222614;22;20047;-90
2023/10/26 08:00:16;;;;;;;49.95;24.27;;;9.70;99.90;;;;;;6244281;23;20095;-90
2023/10/26 08:02:42;;;;;;;48.65;23.60;;;9.60;99.90;;;;;;6218248;23;20458;-89
2023/10/26 08:05:09;;;;;;;50.88;22.38;;;9.90;99.90;;;;;;6217417;23;20162;-89
2023/10/26 08:07:36;;;;;;;43.03;21.52;;;10.80;99.90;;;;;;6217241;23;20024;-89
2023/10/26 08:10:11;;;;;;;46.97;22.45;;;11.00;99.90;;;;;;6216646;23;20512;-88
2023/10/26 08:12:37;;;;;;;48.17;23.30;;;9.60;99.90;;;;;;6220236;23;20024;-90
2023/10/26 08:15:04;;;;;;;48.70;23.75;;;9.50;99.90;;;;;;6223648;23;20078;-90
2023/10/26 08:17:36;;;;;;;46.80;22.73;;;9.70;99.90;;;;;;6218924;23;20024;-91
2023/10/26 08:20:06;;;;;;;42.10;21.92;;;10.50;99.90;;;;;;6217453;23;20453;-89
2023/10/26 08:22:33;;;;;;;45.80;21.67;;;9.90;99.90;;;;;;6220303;23;20023;-90
2023/10/26 08:25:04;;;;;;;42.08;20.77;;;10.30;99.90;;;;;;6217899;23;20020;-90
2023/10/26 08:27:31;;;;;;;41.23;20.23;;;11.30;99.90;;;;;;6217386;23;20110;-90
2023/10/26 08:30:10;;;;;;;40.30;21.48;;;11.20;99.90;;;;;;6218147;23;20020;-91
2023/10/26 08:32:38;;;;;;;39.05;20.27;;;9.90;99.90;;;;;;6219506;23;20020;-90
2023/10/26 08:35:12;;;;;;;36.50;20.45;;;11.10;99.90;;;;;;6218721;23;20013;-90
2023/10/26 08:37:52;;;;;;;38.78;20.42;;;10.20;99.90;;;;;;6218275;23;20452;-90
2023/10/26 08:40:18;;;;;;;35.25;19.70;;;11.40;99.90;;;;;;6217729;23;20012;-91
2023/10/26 08:42:44;;;;;;;37.05;18.38;;;10.00;99.90;;;;;;6217470;23;20077;-90
2023/10/26 08:45:24;;;;;;;36.08;19.70;;;11.50;99.90;;;;;;6218067;23;20016;-89
2023/10/26 08:47:50;;;;;;;35.10;18.83;;;11.10;99.90;;;;;;6218206;23;20310;-87
2023/10/26 08:50:24;;;;;;;37.83;19.50;;;11.50;99.90;;;;;;6216793;23;20393;-87
2023/10/26 08:53:28;;;;;;;35.47;18.55;;;10.30;99.90;;;;;;6218444;23;20018;-87
2023/10/26 08:59:00;;;;;;;32.53;18.05;;;10.60;99.90;;;;;;6242735;23;20448;-88
2023/10/26 09:01:40;;;;;;;35.33;18.80;;;9.80;99.90;;;;;;6246829;22;20020;-87
2023/10/26 09:04:10;;;;;;;33.08;19.13;;;12.10;99.90;;;;;;6242651;23;20012;-88
2023/10/26 09:06:44;;;;;;;31.73;18.08;;;10.90;99.90;;;;;;6244443;23;20043;-88
2023/10/26 09:09:13;;;;;;;28.15;17.13;;;10.90;99.90;;;;;;6243881;23;20024;-87
2023/10/26 09:11:38;;;;;;;32.15;17.77;;;10.50;99.90;;;;;;6244611;23;20020;-88
2023/10/26 09:14:13;;;;;;;32.78;17.58;;;10.50;99.90;;;;;;6243918;23;20028;-88
2023/10/26 09:16:41;;;;;;;32.90;18.55;;;10.40;99.90;;;;;;6244146;23;20468;-88
2023/10/26 09:19:12;;;;;;;32.28;17.45;;;10.40;99.90;;;;;;6245471;23;20020;-89
2023/10/26 09:25:16;;;;;;;32.92;18.10;;;10.70;99.90;;;;;;6269351;22;20078;-88
2023/10/26 09:27:43;;;;;;;27.70;16.98;;;10.80;99.90;;;;;;6245237;23;20078;-87
2023/10/26 09:30:30;;;;;;;29.95;17.13;;;12.10;99.90;;;;;;6245022;23;20016;-86
2023/10/26 09:33:01;;;;;;;27.35;15.10;;;10.90;99.90;;;;;;6244337;23;20004;-87
2023/10/26 09:35:32;;;;;;;26.52;15.73;;;11.00;99.90;;;;;;6247529;23;20017;-90
2023/10/26 09:38:00;;;;;;;33.10;17.40;;;10.90;99.90;;;;;;6244281;23;20020;-89
2023/10/26 09:40:27;;;;;;;30.90;17.65;;;11.60;99.90;;;;;;6244347;23;20020;-88
2023/10/26 09:42:56;;;;;;;27.55;16.38;;;12.00;99.90;;;;;;6246861;23;20095;-87
2023/10/26 09:45:22;;;;;;;32.08;17.67;;;10.90;99.90;;;;;;6245579;23;20020;-88
2023/10/26 09:47:48;;;;;;;29.25;17.08;;;12.30;99.90;;;;;;6246213;23;20020;-89
2023/10/26 09:50:15;;;;;;;29.65;17.80;;;12.30;99.90;;;;;;6244189;23;20051;-87
2023/10/26 09:52:42;;;;;;;27.67;16.48;;;11.50;99.90;;;;;;6243929;23;20434;-88
2023/10/26 09:55:12;;;;;;;29.27;17.10;;;12.50;99.90;;;;;;6258970;22;20015;-89
2023/10/26 09:57:52;;;;;;;28.40;16.95;;;12.10;99.90;;;;;;6275688;22;20440;-89
2023/10/26 10:00:27;;;;;;;28.02;16.55;;;11.10;99.90;;;;;;6261243;22;20329;-88
2023/10/26 10:03:12;;;;;;;30.27;17.40;;;11.90;99.90;;;;;;6278426;22;20385;-89
2023/10/26 10:05:40;;;;;;;29.25;16.42;;;11.10;99.90;;;;;;6276329;22;20069;-89
2023/10/26 10:08:44;;;;;;;26.10;15.82;;;12.30;99.90;;;;;;6274361;22;20012;-89
2023/10/26 10:11:17;;;;;;;28.47;16.97;;;10.40;99.90;;;;;;6275201;22;20098;-89
2023/10/26 10:13:43;;;;;;;26.60;15.02;;;11.20;99.90;;;;;;6274408;22;20242;-89
2023/10/26 10:16:48;;;;;;;25.90;15.25;;;11.20;99.90;;;;;;6274865;22;20440;-89
2023/10/26 10:19:23;;;;;;;27.73;15.48;;;11.40;99.90;;;;;;6274830;22;20020;-88
2023/10/26 10:21:49;;;;;;;25.27;15.68;;;12.70;99.90;;;;;;6275051;22;20428;-88
2023/10/26 10:24:40;;;;;;;25.45;14.65;;;13.20;99.90;;;;;;6274895;22;20015;-87
2023/10/26 10:27:12;;;;;;;24.80;14.82;;;12.00;99.90;;;;;;6274742;22;20020;-88
2023/10/26 10:29:42;;;;;;;24.35;13.63;;;12.10;99.90;;;;;;6275078;22;20120;-88
2023/10/26 10:32:11;;;;;;;24.80;14.20;;;13.40;99.90;;;;;;6275292;22;20393;-88
2023/10/26 10:34:44;;;;;;;22.33;13.55;;;12.40;99.90;;;;;;6274572;22;20072;-87
2023/10/26 10:37:21;;;;;;;23.00;13.80;;;12.50;99.90;;;;;;6277649;22;20065;-89
2023/10/26 10:40:13;;;;;;;22.83;13.70;;;13.30;99.90;;;;;;6276996;22;20043;-85
2023/10/26 10:42:49;;;;;;;24.98;14.15;;;12.60;99.90;;;;;;6274439;22;20016;-89
2023/10/26 10:45:16;;;;;;;23.23;14.05;;;13.70;99.90;;;;;;6273540;22;20019;-89
2023/10/26 10:47:43;;;;;;;21.20;13.30;;;13.30;99.90;;;;;;6275367;22;20498;-90
2023/10/26 10:50:26;;;;;;;21.65;13.18;;;14.10;99.90;;;;;;6274363;22;20024;-91
2023/10/26 10:56:27;;;;;;;;;;;13.20;99.90;;;;;;6300868;22;20023;-88
2023/10/26 10:59:48;;;;;;;22.40;13.55;;;14.10;99.90;;;;;;6276644;22;19929;-87
2023/10/26 11:02:14;;;;;;;21.35;12.63;;;12.60;99.90;;;;;;6278929;22;20095;-88
2023/10/26 11:04:57;;;;;;;22.02;12.77;;;13.00;99.90;;;;;;6274603;22;20101;-87
2023/10/26 11:07:27;;;;;;;22.08;13.45;;;14.20;99.90;;;;;;6274061;22;20083;-86
2023/10/26 11:09:57;;;;;;;22.25;13.63;;;14.10;99.90;;;;;;6275056;22;20019;-85
2023/10/26 11:12:22;;;;;;;22.83;13.95;;;13.10;99.90;;;;;;6274200;22;20016;-85
2023/10/26 11:14:49;;;;;;;19.60;12.45;;;13.40;99.90;;;;;;6274644;22;20023;-83
2023/10/26 11:17:23;;;;;;;23.75;13.95;;;14.30;99.90;;;;;;6273147;22;20019;-81
2023/10/26 11:19:50;;;;;;;24.73;14.32;;;12.80;99.90;;;;;;6274274;22;20016;-84
2023/10/26 11:22:17;;;;;;;21.52;13.80;;;14.10;99.90;;;;;;6274274;22;20475;-84
2023/10/26 11:24:43;;;;;;;22.83;13.43;;;13.30;99.90;;;;;;6273890;22;20015;-84
2023/10/26 11:27:14;;;;;;;22.67;13.50;;;13.80;99.90;;;;;;6275030;22;20332;-85
2023/10/26 11:29:40;;;;;;;21.98;13.30;;;13.70;99.90;;;;;;6273660;22;20019;-86
2023/10/26 11:32:24;;;;;;;25.95;14.93;;;13.80;99.90;;;;;;6271232;22;20103;-85
2023/10/26 11:35:06;;;;;;;24.05;14.63;;;13.10;99.90;;;;;;6275951;22;20023;-86
2023/10/26 11:37:35;;;;;;;22.83;13.80;;;12.80;99.90;;;;;;6273722;22;20031;-83
2023/10/26 11:40:05;;;;;;;21.55;13.50;;;13.00;99.90;;;;;;6274041;22;20015;-87
2023/10/26 11:42:44;;;;;;;18.52;11.35;;;13.20;99.90;;;;;;6273993;22;20095;-85
2023/10/26 11:45:11;;;;;;;17.13;10.57;;;14.50;99.90;;;;;;6274466;22;20090;-86
2023/10/26 11:47:48;;;;;;;16.92;9.65;;;15.10;99.90;;;;;;6274616;22;20019;-85
2023/10/26 11:53:04;;;;;;;15.35;9.10;;;14.10;99.90;;;;;;6273512;22;20089;-86
2023/10/26 11:55:31;;;;;;;15.40;9.32;;;14.80;99.90;;;;;;6248153;22;20051;-86
2023/10/26 11:58:02;;;;;;;15.63;9.18;;;15.40;99.90;;;;;;6246706;22;20106;-85
2023/10/26 12:00:29;;;;;;;16.60;9.05;;;15.60;99.90;;;;;;6247440;22;20007;-86
2023/10/26 12:02:56;;;;;;;15.07;8.98;;;15.50;99.90;;;;;;6248743;22;20022;-86
2023/10/26 12:05:23;;;;;;;13.40;7.95;;;14.70;99.90;;;;;;6247399;22;20047;-86
2023/10/26 12:07:49;;;;;;;14.38;8.10;;;15.20;99.90;;;;;;6247634;22;20456;-86
2023/10/26 12:10:16;;;;;;;15.35;8.32;;;15.90;99.90;;;;;;6248142;22;20015;-86
2023/10/26 12:12:43;;;;;;;14.32;8.55;;;15.10;99.90;;;;;;6274275;22;20078;-86
2023/10/26 12:15:10;;;;;;;14.13;8.20;;;15.30;99.90;;;;;;6247704;22;20019;-86
2023/10/26 12:17:36;;;;;;;16.45;8.98;;;15.50;99.90;;;;;;6248301;22;20062;-86
2023/10/26 12:20:05;;;;;;;14.88;8.27;;;15.90;99.90;;;;;;6274648;22;20016;-86
2023/10/26 12:22:32;;;;;;;13.85;8.30;;;15.40;99.90;;;;;;6275365;22;20465;-86
2023/10/26 12:25:10;;;;;;;14.15;8.45;;;15.40;99.90;;;;;;6248724;22;20387;-86
2023/10/26 12:27:37;;;;;;;15.65;9.40;;;15.60;99.90;;;;;;6248062;22;20020;-87
2023/10/26 12:30:03;;;;;;;14.18;8.88;;;14.60;99.90;;;;;;6248564;22;20125;-85
2023/10/26 12:32:30;;;;;;;13.45;8.52;;;14.50;99.90;;;;;;6248885;22;20019;-84
2023/10/26 12:34:55;;;;;;;14.07;8.43;;;14.90;99.90;;;;;;6249536;22;20062;-85
2023/10/26 12:37:21;;;;;;;12.93;8.30;;;15.10;99.90;;;;;;6250394;22;20019;-85
2023/10/26 12:39:47;;;;;;;14.82;8.35;;;15.10;99.90;;;;;;6250401;22;20348;-84
2023/10/26 12:42:13;;;;;;;13.13;8.20;;;13.90;99.90;;;;;;6249244;22;20046;-85
2023/10/26 12:44:39;;;;;;;15.30;9.27;;;13.70;99.90;;;;;;6277941;22;20031;-85
2023/10/26 12:47:05;;;;;;;15.88;9.00;;;13.50;99.90;;;;;;6250865;22;20020;-86
2023/10/26 12:49:32;;;;;;;16.92;9.40;;;14.40;99.90;;;;;;6248842;22;20065;-84
2023/10/26 12:51:57;;;;;;;15.15;9.32;;;13.40;99.90;;;;;;6250210;22;20085;-85
2023/10/26 12:54:23;;;;;;;15.93;8.98;;;14.10;99.90;;;;;;6250381;22;20023;-83
2023/10/26 12:56:48;;;;;;;15.38;9.02;;;13.20;99.90;;;;;;6276930;22;20018;-84
2023/10/26 12:59:14;;;;;;;17.42;9.88;;;13.20;99.90;;;;;;6249723;22;20016;-84
2023/10/26 13:01:40;;;;;;;14.43;8.95;;;14.00;99.90;;;;;;6249464;22;20359;-84
2023/10/26 13:04:05;;;;;;;14.63;8.48;;;14.30;99.90;;;;;;6250228;22;20011;-83
2023/10/26 13:06:33;;;;;;;14.25;8.85;;;13.50;99.90;;;;;;6250301;22;20073;-84